Time;durP1;ratioP1;P1;durP2;ratioP2;P2;SDS_P1;SDS_P2;PMS_P1;PMS_P2;Temp;Humidity;BMP_temperature;BMP_pressure;BME280_temperature;BME280_humidity;BME280_pressure;Samples;Min_cycle;Max_cycle;Signal;HPM_P1;HPM_P2
2023/09/01 00:00:12;;;;;;;1.40;1.30;;;;;;;;;;4996882;28;20026;-79
2023/09/01 00:02:38;;;;;;;1.90;1.20;;;;;;;;;;4996511;28;20031;-79
2023/09/01 00:05:05;;;;;;;1.95;1.45;;;;;;;;;;4979249;28;20140;-80
2023/09/01 00:07:31;;;;;;;1.40;1.30;;;;;;;;;;4996784;28;20026;-79
2023/09/01 00:09:57;;;;;;;1.13;1.02;;;;;;;;;;4997049;28;20027;-79
2023/09/01 00:12:23;;;;;;;1.05;0.90;;;;;;;;;;4998288;28;20489;-78
2023/09/01 00:14:49;;;;;;;1.52;1.42;;;;;;;;;;4982740;28;20500;-79
2023/09/01 00:17:16;;;;;;;1.38;1.27;;;;;;;;;;4982631;28;20497;-79
2023/09/01 00:19:42;;;;;;;1.73;1.63;;;;;;;;;;5003877;28;20026;-79
2023/09/01 00:22:08;;;;;;;1.55;1.45;;;;;;;;;;5010472;28;20018;-79
2023/09/01 00:24:34;;;;;;;2.50;1.50;;;;;;;;;;5001882;28;20034;-78
2023/09/01 00:27:00;;;;;;;1.70;1.52;;;;;;;;;;5008835;28;20481;-80
2023/09/01 00:29:27;;;;;;;2.70;1.98;;;;;;;;;;4984063;28;20026;-79
2023/09/01 00:31:53;;;;;;;1.60;1.50;;;;;;;;;;5007543;28;20038;-78
2023/09/01 00:34:19;;;;;;;2.00;1.67;;;;;;;;;;4984386;28;20030;-78
2023/09/01 00:36:49;;;;;;;1.60;1.50;;;;;;;;;;4989418;28;20026;-79
2023/09/01 00:39:15;;;;;;;1.77;1.67;;;;;;;;;;4989763;28;20073;-80
2023/09/01 00:41:41;;;;;;;1.70;1.58;;;;;;;;;;5007239;28;20030;-77
2023/09/01 00:44:08;;;;;;;1.65;1.55;;;;;;;;;;5002398;28;20034;-78
2023/09/01 00:46:35;;;;;;;1.65;1.55;;;;;;;;;;4988215;28;20428;-78
2023/09/01 00:49:03;;;;;;;1.80;1.70;;;;;;;;;;5011828;28;20037;-79
2023/09/01 00:51:29;;;;;;;1.40;1.30;;;;;;;;;;5006821;28;20045;-78
2023/09/01 00:53:56;;;;;;;2.17;1.92;;;;;;;;;;4988441;28;20030;-78
2023/09/01 00:56:22;;;;;;;2.17;2.00;;;;;;;;;;5003325;28;20026;-78
2023/09/01 00:58:48;;;;;;;1.77;1.58;;;;;;;;;;5001655;28;20030;-80
2023/09/01 01:01:14;;;;;;;1.80;1.70;;;;;;;;;;5003200;28;20089;-80
2023/09/01 01:03:41;;;;;;;3.72;2.75;;;;;;;;;;5011016;28;20053;-77
2023/09/01 01:06:14;;;;;;;2.47;2.28;;;;;;;;;;4992932;28;20035;-77
2023/09/01 01:08:58;;;;;;;2.20;1.80;;;;;;;;;;5011022;28;20037;-77
2023/09/01 01:11:44;;;;;;;2.72;1.88;;;;;;;;;;5008284;28;20038;-79
2023/09/01 01:14:22;;;;;;;1.90;1.75;;;;;;;;;;5000402;28;20465;-79
2023/09/01 01:16:49;;;;;;;2.10;1.90;;;;;;;;;;4981596;28;20081;-78
2023/09/01 01:19:36;;;;;;;1.60;1.50;;;;;;;;;;4981657;28;20030;-78
2023/09/01 01:22:03;;;;;;;1.58;1.48;;;;;;;;;;4965504;28;20509;-78
2023/09/01 01:24:29;;;;;;;1.70;1.60;;;;;;;;;;4999549;28;20031;-78
2023/09/01 01:26:55;;;;;;;1.92;1.80;;;;;;;;;;4988310;28;20030;-79
2023/09/01 01:29:21;;;;;;;1.50;1.40;;;;;;;;;;5001485;28;20053;-78
2023/09/01 01:31:47;;;;;;;1.45;1.35;;;;;;;;;;5014782;28;20049;-78
2023/09/01 01:34:29;;;;;;;1.50;1.40;;;;;;;;;;5013329;28;20030;-79
2023/09/01 01:37:06;;;;;;;1.40;1.30;;;;;;;;;;5006825;28;20030;-78
2023/09/01 01:39:33;;;;;;;1.95;1.30;;;;;;;;;;5002558;28;20066;-79
2023/09/01 01:42:02;;;;;;;3.20;1.45;;;;;;;;;;5013158;28;20030;-77
2023/09/01 01:44:31;;;;;;;1.38;1.27;;;;;;;;;;5006656;28;20512;-79
2023/09/01 01:46:58;;;;;;;1.40;1.30;;;;;;;;;;5008399;28;20022;-79
2023/09/01 01:49:24;;;;;;;1.50;1.40;;;;;;;;;;5014221;28;20037;-79
2023/09/01 01:51:50;;;;;;;1.58;1.48;;;;;;;;;;5019234;28;20025;-79
2023/09/01 01:54:16;;;;;;;1.40;1.30;;;;;;;;;;4991563;28;20367;-79
2023/09/01 01:56:42;;;;;;;1.60;1.50;;;;;;;;;;4999428;28;20034;-79
2023/09/01 01:59:08;;;;;;;1.80;1.67;;;;;;;;;;4997395;28;20019;-77
2023/09/01 02:01:34;;;;;;;1.38;1.27;;;;;;;;;;4998145;28;20034;-78
2023/09/01 02:04:00;;;;;;;1.80;1.65;;;;;;;;;;4999711;28;20045;-78
2023/09/01 02:06:26;;;;;;;1.70;1.60;;;;;;;;;;4981070;28;20033;-78
2023/09/01 02:08:52;;;;;;;1.45;1.35;;;;;;;;;;4981413;28;20112;-78
2023/09/01 02:11:18;;;;;;;1.45;1.35;;;;;;;;;;4999675;28;20062;-79
2023/09/01 02:13:44;;;;;;;2.22;1.70;;;;;;;;;;4981525;28;20029;-79
2023/09/01 02:16:11;;;;;;;1.67;1.58;;;;;;;;;;4998668;28;20022;-79
2023/09/01 02:18:37;;;;;;;2.17;1.98;;;;;;;;;;4989417;28;20061;-80
2023/09/01 02:21:05;;;;;;;1.80;1.70;;;;;;;;;;5018755;28;20025;-79
2023/09/01 02:23:31;;;;;;;1.60;1.50;;;;;;;;;;5019359;28;20030;-79
2023/09/01 02:25:57;;;;;;;1.75;1.65;;;;;;;;;;5016050;28;20052;-78
2023/09/01 02:28:23;;;;;;;2.80;1.50;;;;;;;;;;4980961;28;20448;-79
2023/09/01 02:30:49;;;;;;;1.77;1.63;;;;;;;;;;4997336;28;20033;-79
2023/09/01 02:33:15;;;;;;;1.75;1.48;;;;;;;;;;4997992;28;20068;-79
2023/09/01 02:35:44;;;;;;;2.33;2.13;;;;;;;;;;4998124;28;20077;-78
2023/09/01 02:38:10;;;;;;;2.00;1.90;;;;;;;;;;4998044;28;20018;-79
2023/09/01 02:40:36;;;;;;;2.20;1.52;;;;;;;;;;4980888;28;20394;-81
2023/09/01 02:43:03;;;;;;;1.85;1.75;;;;;;;;;;4999175;28;20031;-80
2023/09/01 02:45:29;;;;;;;1.73;1.63;;;;;;;;;;4980690;28;20077;-79
2023/09/01 02:47:56;;;;;;;2.00;1.88;;;;;;;;;;4998484;28;20029;-79
2023/09/01 02:50:23;;;;;;;1.98;1.77;;;;;;;;;;4998891;28;20063;-79
2023/09/01 02:52:49;;;;;;;2.17;1.98;;;;;;;;;;4999690;28;20049;-79
2023/09/01 02:55:17;;;;;;;2.15;1.98;;;;;;;;;;5000824;28;20027;-79
2023/09/01 02:57:44;;;;;;;2.20;2.00;;;;;;;;;;5004277;28;20022;-78
2023/09/01 03:00:21;;;;;;;1.90;1.80;;;;;;;;;;5000596;28;20519;-78
2023/09/01 03:02:47;;;;;;;1.80;1.70;;;;;;;;;;4996610;28;20030;-79
2023/09/01 03:05:14;;;;;;;1.60;1.50;;;;;;;;;;4997995;28;20030;-78
2023/09/01 03:07:41;;;;;;;2.10;1.90;;;;;;;;;;4998183;28;20054;-79
2023/09/01 03:10:07;;;;;;;1.85;1.75;;;;;;;;;;4998186;28;20029;-78
2023/09/01 03:12:34;;;;;;;1.98;1.88;;;;;;;;;;4980579;28;20030;-79
2023/09/01 03:15:00;;;;;;;1.88;1.77;;;;;;;;;;4982232;28;20085;-78
2023/09/01 03:17:26;;;;;;;1.92;1.83;;;;;;;;;;4981919;28;20027;-78
2023/09/01 03:19:52;;;;;;;1.75;1.65;;;;;;;;;;4998662;28;20018;-79
2023/09/01 03:22:19;;;;;;;2.35;2.15;;;;;;;;;;4999063;28;20100;-79
2023/09/01 03:24:45;;;;;;;2.90;2.25;;;;;;;;;;4998055;28;20044;-79
2023/09/01 03:27:14;;;;;;;2.28;2.08;;;;;;;;;;4981342;28;20465;-78
2023/09/01 03:29:41;;;;;;;2.75;2.00;;;;;;;;;;5003765;28;20106;-78
2023/09/01 03:32:10;;;;;;;2.25;1.95;;;;;;;;;;5004149;28;20022;-78
2023/09/01 03:34:37;;;;;;;2.10;1.90;;;;;;;;;;4981522;28;20169;-80
2023/09/01 03:37:03;;;;;;;2.15;1.65;;;;;;;;;;4999111;28;20027;-79
2023/09/01 03:39:29;;;;;;;2.35;2.15;;;;;;;;;;5000771;28;20041;-77
2023/09/01 03:41:56;;;;;;;2.25;2.05;;;;;;;;;;4999009;28;20031;-78
2023/09/01 03:44:22;;;;;;;1.63;1.52;;;;;;;;;;4997247;28;20026;-79
2023/09/01 03:46:48;;;;;;;1.80;1.70;;;;;;;;;;4979083;28;20034;-78
2023/09/01 03:49:14;;;;;;;2.13;1.55;;;;;;;;;;4999142;28;20029;-80
2023/09/01 03:51:41;;;;;;;1.58;1.48;;;;;;;;;;5001946;28;20022;-79
2023/09/01 03:54:07;;;;;;;1.52;1.42;;;;;;;;;;5001774;28;20399;-78
2023/09/01 03:56:33;;;;;;;1.77;1.67;;;;;;;;;;5000805;28;20057;-77
2023/09/01 03:58:59;;;;;;;1.35;1.27;;;;;;;;;;5001247;28;20022;-78
2023/09/01 04:01:25;;;;;;;1.50;1.40;;;;;;;;;;5000813;28;20026;-79
2023/09/01 04:03:51;;;;;;;1.63;1.52;;;;;;;;;;5001245;28;20026;-80
2023/09/01 04:06:17;;;;;;;1.30;1.20;;;;;;;;;;5000516;28;20022;-79
2023/09/01 04:08:43;;;;;;;1.17;1.17;;;;;;;;;;5001951;28;20505;-79
2023/09/01 04:11:09;;;;;;;1.48;1.38;;;;;;;;;;5004270;28;20049;-79
2023/09/01 04:13:36;;;;;;;1.13;1.13;;;;;;;;;;5002681;28;20031;-78
2023/09/01 04:16:02;;;;;;;1.38;1.27;;;;;;;;;;4983250;28;20018;-79
2023/09/01 04:18:28;;;;;;;1.15;1.05;;;;;;;;;;5000586;28;20023;-80
2023/09/01 04:20:55;;;;;;;1.05;1.05;;;;;;;;;;5000501;28;20060;-78
2023/09/01 04:23:21;;;;;;;1.20;1.20;;;;;;;;;;5001035;28;20136;-79
2023/09/01 04:25:48;;;;;;;1.52;1.20;;;;;;;;;;4981492;28;20034;-78
2023/09/01 04:28:15;;;;;;;1.20;1.10;;;;;;;;;;4998839;28;20026;-78
2023/09/01 04:30:42;;;;;;;1.35;1.33;;;;;;;;;;5006889;28;20437;-79
2023/09/01 04:33:08;;;;;;;1.40;1.27;;;;;;;;;;4990351;28;20025;-79
2023/09/01 04:35:35;;;;;;;1.20;1.15;;;;;;;;;;5002512;28;20043;-79
2023/09/01 04:38:01;;;;;;;1.42;1.33;;;;;;;;;;4999313;28;20014;-81
2023/09/01 04:40:28;;;;;;;1.50;1.40;;;;;;;;;;4982486;28;20027;-82
2023/09/01 04:42:54;;;;;;;1.30;1.20;;;;;;;;;;5000828;28;20029;-83
2023/09/01 04:45:20;;;;;;;1.13;1.02;;;;;;;;;;4984504;28;20018;-82
2023/09/01 04:47:46;;;;;;;1.20;1.20;;;;;;;;;;5003705;28;20042;-82
2023/09/01 04:50:13;;;;;;;1.25;1.15;;;;;;;;;;4986807;28;20168;-81
2023/09/01 04:52:39;;;;;;;1.30;1.20;;;;;;;;;;5002498;28;20030;-84
2023/09/01 04:55:05;;;;;;;1.30;1.20;;;;;;;;;;5001490;28;20452;-82
2023/09/01 04:57:31;;;;;;;1.33;1.23;;;;;;;;;;4999209;28;20026;-82
2023/09/01 04:59:58;;;;;;;0.90;0.90;;;;;;;;;;4998453;28;20492;-82
2023/09/01 05:02:24;;;;;;;1.30;1.20;;;;;;;;;;4980427;28;20142;-82
2023/09/01 05:04:50;;;;;;;1.10;1.10;;;;;;;;;;4997612;28;20104;-81
2023/09/01 05:07:16;;;;;;;0.95;0.95;;;;;;;;;;5001830;28;20105;-82
2023/09/01 05:09:42;;;;;;;0.98;0.98;;;;;;;;;;4985446;28;20521;-82
2023/09/01 05:12:08;;;;;;;0.80;0.80;;;;;;;;;;4983786;28;20045;-81
2023/09/01 05:14:34;;;;;;;1.02;1.02;;;;;;;;;;4981094;28;20184;-81
2023/09/01 05:17:01;;;;;;;1.17;1.17;;;;;;;;;;4980582;28;20107;-81
2023/09/01 05:19:27;;;;;;;0.80;0.80;;;;;;;;;;5000007;28;20022;-81
2023/09/01 05:21:54;;;;;;;0.88;0.88;;;;;;;;;;4986421;28;20061;-84
2023/09/01 05:24:20;;;;;;;0.80;0.80;;;;;;;;;;4996398;28;20034;-81
2023/09/01 05:26:47;;;;;;;1.05;0.98;;;;;;;;;;5018195;28;20021;-82
2023/09/01 05:29:13;;;;;;;0.90;0.90;;;;;;;;;;5018997;28;20042;-83
2023/09/01 05:31:39;;;;;;;1.08;1.08;;;;;;;;;;5009872;28;20030;-83
2023/09/01 05:34:06;;;;;;;0.98;0.98;;;;;;;;;;5006828;28;20026;-82
2023/09/01 05:36:32;;;;;;;1.20;1.10;;;;;;;;;;5005972;28;20022;-83
2023/09/01 05:38:58;;;;;;;0.93;0.93;;;;;;;;;;5010675;28;20038;-82
2023/09/01 05:41:24;;;;;;;1.23;1.20;;;;;;;;;;5012985;28;20050;-85
2023/09/01 05:43:50;;;;;;;1.38;1.30;;;;;;;;;;5014023;28;20036;-82
2023/09/01 05:46:17;;;;;;;1.00;1.00;;;;;;;;;;5016167;28;20045;-81
2023/09/01 05:48:43;;;;;;;1.05;0.95;;;;;;;;;;5017123;28;20030;-79
2023/09/01 05:51:09;;;;;;;1.20;1.10;;;;;;;;;;5016510;28;20042;-79
2023/09/01 05:53:35;;;;;;;1.23;1.13;;;;;;;;;;4989739;28;20105;-80
2023/09/01 05:56:01;;;;;;;1.35;1.10;;;;;;;;;;5030346;28;20053;-78
2023/09/01 05:58:29;;;;;;;1.52;1.42;;;;;;;;;;5026804;28;20026;-77
2023/09/01 06:00:55;;;;;;;1.20;1.20;;;;;;;;;;5011858;28;20019;-78
2023/09/01 06:03:23;;;;;;;1.35;1.25;;;;;;;;;;4990794;28;20084;-80
2023/09/01 06:05:50;;;;;;;1.35;1.25;;;;;;;;;;4986888;28;20030;-80
2023/09/01 06:08:16;;;;;;;1.00;1.00;;;;;;;;;;5004315;28;20128;-81
2023/09/01 06:10:42;;;;;;;1.10;1.00;;;;;;;;;;5001899;28;20030;-80
2023/09/01 06:13:08;;;;;;;1.20;1.20;;;;;;;;;;4986497;28;20033;-81
2023/09/01 06:15:34;;;;;;;0.90;0.90;;;;;;;;;;5003515;28;20022;-82
2023/09/01 06:18:00;;;;;;;1.35;1.20;;;;;;;;;;5011358;28;20040;-80
2023/09/01 06:20:30;;;;;;;0.80;0.80;;;;;;;;;;5001682;28;20026;-80
2023/09/01 06:22:56;;;;;;;0.98;0.98;;;;;;;;;;5001355;28;20076;-81
2023/09/01 06:25:22;;;;;;;1.05;1.05;;;;;;;;;;5001904;28;20026;-81
2023/09/01 06:27:48;;;;;;;0.90;0.90;;;;;;;;;;5003170;28;20037;-82
2023/09/01 06:30:14;;;;;;;1.10;1.10;;;;;;;;;;5007496;28;20034;-82
2023/09/01 06:32:40;;;;;;;0.73;0.73;;;;;;;;;;4994927;28;20030;-81
2023/09/01 06:35:07;;;;;;;1.25;1.15;;;;;;;;;;5013533;28;20007;-80
2023/09/01 06:37:33;;;;;;;0.90;0.90;;;;;;;;;;5002986;28;20026;-82
2023/09/01 06:39:59;;;;;;;1.98;0.95;;;;;;;;;;5010375;28;20022;-84
2023/09/01 06:42:26;;;;;;;1.17;1.08;;;;;;;;;;5015781;28;20114;-86
2023/09/01 06:44:57;;;;;;;0.70;0.70;;;;;;;;;;5029198;28;20069;-85
2023/09/01 06:47:23;;;;;;;0.80;0.80;;;;;;;;;;5004428;28;20039;-85
2023/09/01 06:49:49;;;;;;;0.90;0.90;;;;;;;;;;5006676;28;20018;-85
2023/09/01 06:52:16;;;;;;;0.80;0.80;;;;;;;;;;5036670;28;20112;-86
2023/09/01 06:54:42;;;;;;;0.50;0.50;;;;;;;;;;5006250;28;20010;-86
2023/09/01 06:57:09;;;;;;;1.10;1.10;;;;;;;;;;5016908;28;20025;-87
2023/09/01 06:59:37;;;;;;;0.60;0.60;;;;;;;;;;5016286;28;20033;-88
2023/09/01 07:02:11;;;;;;;0.70;0.70;;;;;;;;;;5016090;28;20041;-87
2023/09/01 07:04:38;;;;;;;0.68;0.68;;;;;;;;;;5016454;28;20022;-90
2023/09/01 07:07:09;;;;;;;0.75;0.75;;;;;;;;;;5015799;28;20030;-85
2023/09/01 07:09:35;;;;;;;0.90;0.90;;;;;;;;;;5019384;28;20030;-89
2023/09/01 07:12:01;;;;;;;0.63;0.63;;;;;;;;;;5015642;28;20053;-87
2023/09/01 07:14:32;;;;;;;1.20;1.10;;;;;;;;;;5017076;28;20033;-84
2023/09/01 07:16:58;;;;;;;0.90;0.90;;;;;;;;;;5001155;28;20023;-84
2023/09/01 07:19:26;;;;;;;0.90;0.90;;;;;;;;;;5007302;28;20054;-85
2023/09/01 07:21:55;;;;;;;0.57;0.57;;;;;;;;;;5012786;28;20124;-86
2023/09/01 07:25:10;;;;;;;0.70;0.70;;;;;;;;;;5015060;28;20019;-86
2023/09/01 07:27:40;;;;;;;0.70;0.63;;;;;;;;;;5018060;28;20023;-86
2023/09/01 07:33:30;;;;;;;0.90;0.90;;;;;;;;;;5022350;28;20048;-83
2023/09/01 07:36:16;;;;;;;2.30;1.20;;;;;;;;;;4988467;28;20042;-84
2023/09/01 07:38:42;;;;;;;1.80;1.38;;;;;;;;;;4986631;28;20058;-79
2023/09/01 07:41:09;;;;;;;1.92;1.40;;;;;;;;;;5005493;28;20034;-81
2023/09/01 07:43:45;;;;;;;1.27;1.20;;;;;;;;;;4996500;28;20030;-83
2023/09/01 07:46:11;;;;;;;1.10;1.05;;;;;;;;;;5004905;28;20039;-81
2023/09/01 07:48:37;;;;;;;1.05;1.05;;;;;;;;;;5004060;28;20469;-81
2023/09/01 07:51:03;;;;;;;1.20;1.10;;;;;;;;;;5015813;28;20029;-82
2023/09/01 07:53:29;;;;;;;1.77;1.10;;;;;;;;;;5026793;28;20030;-82
2023/09/01 07:55:56;;;;;;;2.78;1.58;;;;;;;;;;5022481;28;20046;-81
2023/09/01 07:58:22;;;;;;;1.38;1.20;;;;;;;;;;5021513;28;20022;-82
2023/09/01 08:00:48;;;;;;;1.40;1.10;;;;;;;;;;5021351;28;20496;-84
2023/09/01 08:03:14;;;;;;;1.17;1.17;;;;;;;;;;5025578;28;20077;-82
2023/09/01 08:05:41;;;;;;;1.92;0.90;;;;;;;;;;4999847;28;20030;-82
2023/09/01 08:08:07;;;;;;;2.33;1.38;;;;;;;;;;4983727;28;20544;-83
2023/09/01 08:10:33;;;;;;;1.83;1.42;;;;;;;;;;4984811;28;20038;-81
2023/09/01 08:12:59;;;;;;;1.55;1.45;;;;;;;;;;5001549;28;20058;-83
2023/09/01 08:15:25;;;;;;;2.03;1.45;;;;;;;;;;4983665;28;20049;-83
2023/09/01 08:17:53;;;;;;;1.17;1.10;;;;;;;;;;5000440;28;20022;-82
2023/09/01 08:20:19;;;;;;;2.20;1.45;;;;;;;;;;4983585;28;20027;-82
2023/09/01 08:22:45;;;;;;;1.30;1.10;;;;;;;;;;5018113;23;21130;-83
2023/09/01 08:25:11;;;;;;;2.47;1.65;;;;;;;;;;5044870;28;20044;-84
2023/09/01 08:27:37;;;;;;;2.03;1.58;;;;;;;;;;5018778;28;20014;-80
2023/09/01 08:30:04;;;;;;;1.50;1.40;;;;;;;;;;5018316;28;20021;-78
2023/09/01 08:32:30;;;;;;;3.17;1.33;;;;;;;;;;5014961;28;20038;-79
2023/09/01 08:34:56;;;;;;;1.52;1.20;;;;;;;;;;5016255;28;20025;-79
2023/09/01 08:37:22;;;;;;;1.48;1.40;;;;;;;;;;5021547;28;20049;-80
2023/09/01 08:39:48;;;;;;;1.25;1.15;;;;;;;;;;5022321;28;20029;-79
2023/09/01 08:42:16;;;;;;;4.35;1.80;;;;;;;;;;4985716;28;20030;-79
2023/09/01 08:44:43;;;;;;;1.50;1.23;;;;;;;;;;5006320;28;20046;-78
2023/09/01 08:47:10;;;;;;;1.63;1.10;;;;;;;;;;5000091;28;20026;-79
2023/09/01 08:49:36;;;;;;;1.40;1.30;;;;;;;;;;4987082;28;20023;-77
2023/09/01 08:52:03;;;;;;;1.95;1.50;;;;;;;;;;5001557;28;20054;-79
2023/09/01 08:54:31;;;;;;;1.42;1.33;;;;;;;;;;5010196;28;20026;-81
2023/09/01 08:56:57;;;;;;;1.42;1.33;;;;;;;;;;5003665;28;20034;-80
2023/09/01 08:59:24;;;;;;;1.33;1.23;;;;;;;;;;5023147;28;20566;-80
2023/09/01 09:01:51;;;;;;;1.73;1.63;;;;;;;;;;5018613;28;20030;-79
2023/09/01 09:04:17;;;;;;;1.58;1.30;;;;;;;;;;5003125;28;20032;-80
2023/09/01 09:06:43;;;;;;;1.27;1.15;;;;;;;;;;5002050;28;20088;-80
2023/09/01 09:09:18;;;;;;;3.78;1.45;;;;;;;;;;5019892;28;20026;-80
2023/09/01 09:12:05;;;;;;;1.13;1.02;;;;;;;;;;5021057;28;20030;-77
2023/09/01 09:14:45;;;;;;;2.08;1.33;;;;;;;;;;5020630;28;20033;-79
2023/09/01 09:17:11;;;;;;;1.02;0.95;;;;;;;;;;5017825;28;20030;-80
2023/09/01 09:19:50;;;;;;;3.05;1.00;;;;;;;;;;5019584;28;20098;-79
2023/09/01 09:22:16;;;;;;;1.88;1.52;;;;;;;;;;5024518;28;20033;-78
2023/09/01 09:24:42;;;;;;;1.10;1.00;;;;;;;;;;5028651;28;20099;-79
2023/09/01 09:27:14;;;;;;;1.20;1.08;;;;;;;;;;5034333;28;20026;-78
2023/09/01 09:29:40;;;;;;;2.75;1.25;;;;;;;;;;5032710;28;20061;-80
2023/09/01 09:32:36;;;;;;;1.15;1.10;;;;;;;;;;5032585;28;20029;-79
2023/09/01 09:35:09;;;;;;;1.67;1.30;;;;;;;;;;4999547;28;20038;-80
2023/09/01 09:37:35;;;;;;;1.48;0.60;;;;;;;;;;5034027;28;20022;-81
2023/09/01 09:40:12;;;;;;;1.10;1.00;;;;;;;;;;5035754;28;20026;-79
2023/09/01 09:42:39;;;;;;;1.58;1.10;;;;;;;;;;5031195;28;20055;-79
2023/09/01 09:45:20;;;;;;;3.08;1.40;;;;;;;;;;5029457;28;20026;-79
2023/09/01 09:47:49;;;;;;;2.95;1.45;;;;;;;;;;5027373;28;20022;-79
2023/09/01 09:50:17;;;;;;;1.40;1.30;;;;;;;;;;5023004;28;20025;-79
2023/09/01 09:52:47;;;;;;;0.95;0.93;;;;;;;;;;5020219;28;20021;-79
2023/09/01 09:55:19;;;;;;;1.10;0.93;;;;;;;;;;4997987;28;20033;-81
2023/09/01 09:57:48;;;;;;;2.03;1.33;;;;;;;;;;5024720;28;20018;-79
2023/09/01 10:00:14;;;;;;;1.15;1.05;;;;;;;;;;5026677;28;20019;-82
2023/09/01 10:02:49;;;;;;;1.10;1.00;;;;;;;;;;5019028;28;20126;-79
2023/09/01 10:05:15;;;;;;;2.08;1.25;;;;;;;;;;5005536;28;20050;-79
2023/09/01 10:07:43;;;;;;;3.25;1.10;;;;;;;;;;5005129;28;20026;-79
2023/09/01 10:10:11;;;;;;;3.60;1.50;;;;;;;;;;5005522;28;20021;-79
2023/09/01 10:12:37;;;;;;;1.27;1.17;;;;;;;;;;5008899;28;20021;-78
2023/09/01 10:15:04;;;;;;;1.20;0.88;;;;;;;;;;5017466;28;20018;-78
2023/09/01 10:17:34;;;;;;;1.30;0.90;;;;;;;;;;5004775;28;20019;-79
2023/09/01 10:20:03;;;;;;;2.63;1.40;;;;;;;;;;4998658;28;20022;-77
2023/09/01 10:22:30;;;;;;;1.55;1.13;;;;;;;;;;4996559;28;20052;-79
2023/09/01 10:25:15;;;;;;;1.30;1.20;;;;;;;;;;5016827;28;20042;-77
2023/09/01 10:28:03;;;;;;;0.80;0.80;;;;;;;;;;5036007;28;20376;-79
2023/09/01 10:30:31;;;;;;;2.00;1.15;;;;;;;;;;5040241;28;20025;-79
2023/09/01 10:33:06;;;;;;;2.17;1.60;;;;;;;;;;5044469;28;20021;-79
2023/09/01 10:35:51;;;;;;;2.30;1.73;;;;;;;;;;5038562;28;20013;-79
2023/09/01 10:38:18;;;;;;;1.60;1.15;;;;;;;;;;5036602;28;20506;-79
2023/09/01 10:40:45;;;;;;;1.35;1.25;;;;;;;;;;5036007;28;20028;-79
2023/09/01 10:43:11;;;;;;;1.17;1.08;;;;;;;;;;5035219;28;20519;-79
2023/09/01 10:45:38;;;;;;;1.23;1.02;;;;;;;;;;5016976;28;20029;-78
2023/09/01 10:48:11;;;;;;;1.48;1.20;;;;;;;;;;5035346;28;20112;-79
2023/09/01 10:50:37;;;;;;;1.10;1.00;;;;;;;;;;5017583;28;20029;-76
2023/09/01 10:53:23;;;;;;;1.40;1.20;;;;;;;;;;5030402;28;20029;-78
2023/09/01 10:56:07;;;;;;;3.35;1.30;;;;;;;;;;5012375;28;20026;-81
2023/09/01 10:58:40;;;;;;;1.38;1.27;;;;;;;;;;5022999;28;20355;-79
2023/09/01 11:01:24;;;;;;;1.30;1.20;;;;;;;;;;5025477;28;20483;-79
2023/09/01 11:03:51;;;;;;;1.17;1.13;;;;;;;;;;5017820;28;20026;-79
2023/09/01 11:06:17;;;;;;;1.60;1.50;;;;;;;;;;5019736;28;20072;-79
2023/09/01 11:09:03;;;;;;;1.85;1.30;;;;;;;;;;5038328;28;20092;-77
2023/09/01 11:11:29;;;;;;;1.02;1.02;;;;;;;;;;4978801;28;20026;-78
2023/09/01 11:13:59;;;;;;;1.30;1.20;;;;;;;;;;5032207;28;20101;-80
2023/09/01 11:16:25;;;;;;;1.63;1.40;;;;;;;;;;5016417;28;20017;-80
2023/09/01 11:19:02;;;;;;;2.80;1.40;;;;;;;;;;5025537;28;20028;-79
2023/09/01 11:21:28;;;;;;;1.58;1.33;;;;;;;;;;4994375;28;20019;-79
2023/09/01 11:23:59;;;;;;;1.38;1.27;;;;;;;;;;5024489;28;20038;-79
2023/09/01 11:26:25;;;;;;;1.00;1.00;;;;;;;;;;4999090;28;20046;-80
2023/09/01 11:28:51;;;;;;;1.83;1.10;;;;;;;;;;5000039;28;20446;-79
2023/09/01 11:31:17;;;;;;;1.27;1.08;;;;;;;;;;5016309;28;20102;-79
2023/09/01 11:33:51;;;;;;;1.83;1.20;;;;;;;;;;5015268;28;20034;-77
2023/09/01 11:36:17;;;;;;;1.77;1.25;;;;;;;;;;5020649;28;20022;-79
2023/09/01 11:38:44;;;;;;;1.95;1.33;;;;;;;;;;5015143;28;20030;-79
2023/09/01 11:41:19;;;;;;;1.10;1.10;;;;;;;;;;5014096;28;20106;-79
2023/09/01 11:43:46;;;;;;;1.30;1.20;;;;;;;;;;5014298;28;20141;-79
2023/09/01 11:46:12;;;;;;;1.25;1.15;;;;;;;;;;5015260;28;20022;-78
2023/09/01 11:48:38;;;;;;;1.10;1.00;;;;;;;;;;5029139;28;20060;-78
2023/09/01 11:51:05;;;;;;;1.60;1.40;;;;;;;;;;5035361;28;20034;-77
2023/09/01 11:53:35;;;;;;;1.05;0.90;;;;;;;;;;5029912;28;20022;-78
2023/09/01 11:56:01;;;;;;;1.20;1.10;;;;;;;;;;5014207;28;20026;-78
2023/09/01 11:58:33;;;;;;;1.58;1.10;;;;;;;;;;5035289;28;20057;-79
2023/09/01 12:01:09;;;;;;;1.50;1.15;;;;;;;;;;5034976;28;20018;-78
2023/09/01 12:03:37;;;;;;;1.30;1.20;;;;;;;;;;5030673;28;20033;-77
2023/09/01 12:06:13;;;;;;;1.50;1.40;;;;;;;;;;5034581;28;20081;-77
2023/09/01 12:08:39;;;;;;;2.95;1.15;;;;;;;;;;5041521;28;20380;-80
2023/09/01 12:11:06;;;;;;;2.85;1.05;;;;;;;;;;5021498;28;20026;-78
2023/09/01 12:13:32;;;;;;;1.25;0.90;;;;;;;;;;5019930;28;20473;-79
2023/09/01 12:16:02;;;;;;;1.83;1.27;;;;;;;;;;5001686;28;20037;-78
2023/09/01 12:18:38;;;;;;;2.20;1.20;;;;;;;;;;5001726;28;20272;-79
2023/09/01 12:21:06;;;;;;;1.27;1.15;;;;;;;;;;5017854;28;20018;-78
2023/09/01 12:23:37;;;;;;;0.90;0.90;;;;;;;;;;5000015;28;20121;-78
2023/09/01 12:26:03;;;;;;;2.35;1.65;;;;;;;;;;5020374;28;20105;-78
2023/09/01 12:28:30;;;;;;;1.75;1.42;;;;;;;;;;5017507;28;20021;-77
2023/09/01 12:30:57;;;;;;;1.25;1.15;;;;;;;;;;5017889;28;20101;-79
2023/09/01 12:33:23;;;;;;;1.25;1.15;;;;;;;;;;5017734;28;20018;-78
2023/09/01 12:35:50;;;;;;;1.08;1.00;;;;;;;;;;5016897;28;20022;-79
2023/09/01 12:38:16;;;;;;;1.95;1.45;;;;;;;;;;5017956;28;20099;-78
2023/09/01 12:40:43;;;;;;;1.35;1.15;;;;;;;;;;5018501;28;20333;-78
2023/09/01 12:43:09;;;;;;;1.67;1.40;;;;;;;;;;5018718;28;20034;-80
2023/09/01 12:45:35;;;;;;;1.73;1.63;;;;;;;;;;4998654;28;20042;-80
2023/09/01 12:48:02;;;;;;;1.35;1.13;;;;;;;;;;4999353;28;20026;-79
2023/09/01 12:50:28;;;;;;;1.00;1.00;;;;;;;;;;4998306;28;20030;-79
2023/09/01 12:52:55;;;;;;;1.63;1.38;;;;;;;;;;5000829;28;20025;-78
2023/09/01 12:55:22;;;;;;;3.92;1.48;;;;;;;;;;5017757;28;20018;-79
2023/09/01 12:57:48;;;;;;;4.78;1.33;;;;;;;;;;5018068;28;20017;-77
2023/09/01 13:00:15;;;;;;;1.42;1.08;;;;;;;;;;4997455;28;20025;-78
2023/09/01 13:02:42;;;;;;;1.13;1.00;;;;;;;;;;4998287;28;20034;-77
2023/09/01 13:05:08;;;;;;;2.05;1.00;;;;;;;;;;5004517;28;20030;-78
2023/09/01 13:07:34;;;;;;;1.23;0.90;;;;;;;;;;5014284;28;20010;-79
2023/09/01 13:10:01;;;;;;;0.95;0.95;;;;;;;;;;5014551;28;20049;-79
2023/09/01 13:12:27;;;;;;;1.80;1.23;;;;;;;;;;5009299;28;20026;-79
2023/09/01 13:14:57;;;;;;;1.20;1.15;;;;;;;;;;5015474;28;20026;-76
2023/09/01 13:17:23;;;;;;;2.65;1.23;;;;;;;;;;5016498;28;20014;-78
2023/09/01 13:19:49;;;;;;;2.67;0.98;;;;;;;;;;5017393;28;20070;-81
2023/09/01 13:22:15;;;;;;;1.23;1.05;;;;;;;;;;5014731;28;20015;-79
2023/09/01 13:24:42;;;;;;;1.23;1.00;;;;;;;;;;4997120;28;20467;-80
2023/09/01 13:27:08;;;;;;;1.40;1.00;;;;;;;;;;5017946;28;20025;-78
2023/09/01 13:29:34;;;;;;;1.38;1.08;;;;;;;;;;5017303;28;20046;-78
2023/09/01 13:32:00;;;;;;;1.95;1.40;;;;;;;;;;5017090;28;20057;-77
2023/09/01 13:34:26;;;;;;;0.98;0.98;;;;;;;;;;4998304;28;20034;-78
2023/09/01 13:36:52;;;;;;;1.27;0.90;;;;;;;;;;4997950;28;20022;-79
2023/09/01 13:39:18;;;;;;;1.52;1.27;;;;;;;;;;4996793;28;20084;-79
2023/09/01 13:41:44;;;;;;;1.10;1.10;;;;;;;;;;5000175;28;20071;-79
2023/09/01 13:44:10;;;;;;;0.90;0.90;;;;;;;;;;4997744;28;20026;-78
2023/09/01 13:46:36;;;;;;;1.10;1.00;;;;;;;;;;4996920;28;20030;-77
2023/09/01 13:49:03;;;;;;;1.85;1.15;;;;;;;;;;4998534;28;20394;-77
2023/09/01 13:51:29;;;;;;;2.13;0.80;;;;;;;;;;5017690;28;20029;-78
2023/09/01 13:53:56;;;;;;;1.05;1.05;;;;;;;;;;5015667;28;20018;-79
2023/09/01 13:56:23;;;;;;;1.30;1.08;;;;;;;;;;5016440;28;20370;-77
2023/09/01 13:58:49;;;;;;;1.15;1.10;;;;;;;;;;5017139;28;20034;-77
2023/09/01 14:01:15;;;;;;;1.30;1.20;;;;;;;;;;5017631;28;20480;-78
2023/09/01 14:03:42;;;;;;;1.45;1.25;;;;;;;;;;5016690;28;20041;-79
2023/09/01 14:06:09;;;;;;;1.42;1.33;;;;;;;;;;5016242;28;20431;-78
2023/09/01 14:08:35;;;;;;;1.50;1.30;;;;;;;;;;5006755;28;20104;-77
2023/09/01 14:11:02;;;;;;;1.98;1.05;;;;;;;;;;4995811;28;20034;-78
2023/09/01 14:13:28;;;;;;;1.23;1.10;;;;;;;;;;4997444;28;20105;-77
2023/09/01 14:15:57;;;;;;;1.52;1.00;;;;;;;;;;4996165;28;20029;-78
2023/09/01 14:18:24;;;;;;;1.45;1.35;;;;;;;;;;4996142;28;20085;-79
2023/09/01 14:20:54;;;;;;;2.75;1.38;;;;;;;;;;4977914;28;20026;-77
2023/09/01 14:23:20;;;;;;;1.05;0.95;;;;;;;;;;4984088;28;20034;-78
2023/09/01 14:25:47;;;;;;;1.15;0.90;;;;;;;;;;5018005;28;20033;-77
2023/09/01 14:28:13;;;;;;;0.90;0.90;;;;;;;;;;5005277;28;20104;-78
2023/09/01 14:30:39;;;;;;;1.23;1.10;;;;;;;;;;5027392;28;20033;-79
2023/09/01 14:33:05;;;;;;;1.00;1.00;;;;;;;;;;5029615;28;20029;-77
2023/09/01 14:35:31;;;;;;;2.05;1.10;;;;;;;;;;5002551;28;20065;-80
2023/09/01 14:37:57;;;;;;;3.45;1.38;;;;;;;;;;5010230;28;20239;-79
2023/09/01 14:40:23;;;;;;;1.20;1.10;;;;;;;;;;5002632;28;20053;-78
2023/09/01 14:42:49;;;;;;;1.27;1.15;;;;;;;;;;4996047;28;20539;-79
2023/09/01 14:45:16;;;;;;;1.10;1.00;;;;;;;;;;4996070;28;20034;-79
2023/09/01 14:47:45;;;;;;;1.05;1.05;;;;;;;;;;4994964;28;20034;-79
2023/09/01 14:50:18;;;;;;;1.67;1.10;;;;;;;;;;5004608;28;20038;-80